Aérodrome :
LOGIN :

S'inscrire | Disclaimer

   EN    FR    IT 

 










Légende :    VFR   VFR Marginal   IFR   IFR Intensif   IFR Très Intensif
Visi : 
Plafond : 
>= 8 km
>= 3000ft
5 à 8 km
1000 à 3000 ft
1500m à 5 km
500 à 1000 ft
800 à 1500m
200 à 500 ft
< 800m
< 200 ft
Symboles :   Orages  Brouillard  Fortes neiges  Fortes précipitations  Vent > 20 kt
SIGMETs :   Divers  Orages  Givrage  Turbulence  Onde Orograph.  Cendres Volcan.






- Altitude de l'aérodrome : 13 ft
- Code IATA : OST


EBOS - Oostend bruges Int.

DERNIER METAR :
  • 192120Z 20015KT 9999 -RA SCT008 BKN014 07/05 Q1018 TEMPO 4000 -RADZ BKN008

METARs EXPIRÉS :
  • 192050Z 20015KT 9000 -RA FEW005 SCT007 BKN011 07/05 Q1019 TEMPO 4000 -RADZ BKN008
  • 192020Z 19012KT 9999 SCT008 SCT017 BKN038 06/05 Q1019 TEMPO 4000 -RADZ BKN008
  • 191950Z 19011KT 9999 -RA FEW008 SCT025 BKN040 06/05 Q1019 TEMPO 4000 -RADZ BKN008
  • 191920Z 19012KT 9999 -RA FEW008 SCT025 BKN040 06/04 Q1019 TEMPO 4000 -RADZ BKN008
  • 191850Z 19012KT 9999 -RA FEW009 BKN011 06/04 Q1020 TEMPO 4000 -RADZ BKN009

TAF TAF EBOS
Valide du 19 à 18h jusqu'au 21 à 00h UTC


191709Z 1918/2024 21015G25KT 9999 SCT025
TEMPO 1918/1923 19013KT 4000 RA BKN012
PROB40
TEMPO 1923/2007 4000 -DZ SCT008 BKN012
TEMPO 2013/2017 23025G40KT 4000 RA SHRA
BECMG 2016/2018 29020G30KT



MET'MAP, la Météo Aéronautique d'un coup d'oeil ! - Copyright ORBIFLY Décembre 2007 - Disclaimer

ORBIFLY MET'MAP TEAM :

Programmation & Développement : Alexandra Zaïnal
Sur une idée originale de : Baudouin d'Aumeries
Assistance à la programmation : Marc-Olivier Méhu
Soutien technique & logistique : Manuel Goepfert

Contact : metmap@orbifly.com




SOURCES & CREDITS :

   NOAA